createdAt,value
2018-12-23T11:43:02.548Z,99741.83
2018-12-23T11:45:33.861Z,99743.18
2018-12-23T11:48:04.363Z,99736.98
2018-12-23T11:50:33.886Z,99747.03
2018-12-23T11:53:06.192Z,99737.63
2018-12-23T11:55:35.721Z,99735.09
2018-12-23T11:58:07.008Z,99744.90
2018-12-23T12:00:39.780Z,99737.67
2018-12-23T12:03:11.089Z,99737.09
2018-12-23T12:05:40.613Z,99733.12
2018-12-23T12:08:10.715Z,99724.59
2018-12-23T12:10:40.330Z,99720.96
2018-12-23T12:13:18.982Z,99720.02
2018-12-23T12:15:54.704Z,99719.41
2018-12-23T12:18:25.962Z,99715.85
2018-12-23T12:20:55.682Z,99708.58
2018-12-23T12:23:25.290Z,99704.14
2018-12-23T12:25:55.482Z,99703.51
2018-12-23T12:28:26.050Z,99699.75
2018-12-23T12:31:03.704Z,99690.72
2018-12-23T12:33:33.287Z,99693.77
2018-12-23T12:36:07.604Z,99693.81
2018-12-23T12:38:37.810Z,99688.12
2018-12-23T12:41:07.897Z,99683.34
2018-12-23T12:43:39.438Z,99687.02
2018-12-23T12:46:12.952Z,99685.80
2018-12-23T12:48:44.184Z,99681.78
2018-12-23T12:51:18.036Z,99679.56
2018-12-23T12:53:49.239Z,99684.17
2018-12-23T12:56:21.249Z,99679.27
2018-12-23T12:58:50.789Z,99674.91
2018-12-23T13:01:22.825Z,99663.72
2018-12-23T13:03:54.302Z,99669.48
2018-12-23T13:06:24.182Z,99661.80
2018-12-23T13:09:00.489Z,99664.21
2018-12-23T13:11:27.758Z,99661.59
2018-12-23T13:13:58.026Z,99659.57
2018-12-23T13:16:30.149Z,99654.37
2018-12-23T13:18:59.744Z,99653.42
2018-12-23T13:21:31.429Z,99648.14
2018-12-23T13:24:04.223Z,99653.41
2018-12-23T13:26:34.006Z,99647.15
2018-12-23T13:29:04.153Z,99642.14
2018-12-23T13:31:36.920Z,99637.06
2018-12-23T13:34:12.015Z,99637.74
2018-12-23T13:36:45.623Z,99640.40
2018-12-23T13:39:16.702Z,99635.91
2018-12-23T13:41:52.119Z,99634.89
2018-12-23T13:44:51.709Z,99638.10
2018-12-23T13:47:36.313Z,99620.53
2018-12-23T13:50:29.881Z,99625.61
2018-12-23T13:53:12.836Z,99637.44
2018-12-23T13:55:53.717Z,99620.30
2018-12-23T13:58:49.163Z,99608.42
2018-12-23T14:01:30.921Z,99599.90
2018-12-23T14:04:17.383Z,99595.02
2018-12-23T14:06:52.369Z,99601.02
2018-12-23T14:09:47.283Z,99591.56
2018-12-23T14:12:20.341Z,99589.31
2018-12-23T14:14:51.110Z,99573.50
2018-12-23T14:17:20.718Z,99584.49
2018-12-23T14:20:02.018Z,99573.33
2018-12-23T14:22:34.654Z,99573.91
2018-12-23T14:25:04.243Z,99575.18
2018-12-23T14:27:33.797Z,99569.52
2018-12-23T14:30:07.053Z,99575.41
2018-12-23T14:32:36.796Z,99580.80
2018-12-23T14:35:06.939Z,99571.16
2018-12-23T14:37:37.924Z,99572.20
2018-12-23T14:40:08.070Z,99574.41
2018-12-23T14:42:51.982Z,99572.07
2018-12-23T14:45:23.642Z,99559.59
2018-12-23T14:47:53.350Z,99554.45
2018-12-23T14:50:24.800Z,99556.12
2018-12-23T14:52:58.963Z,99556.45
2018-12-23T14:55:30.204Z,99544.06
2018-12-23T14:58:03.230Z,99547.26
2018-12-23T15:00:32.842Z,99547.16
2018-12-23T15:03:02.434Z,99545.94
2018-12-23T15:05:36.934Z,99535.78
2018-12-23T15:08:10.675Z,99529.95
2018-12-23T15:10:45.019Z,99529.72
2018-12-23T15:13:18.708Z,99522.50
2018-12-23T15:15:50.030Z,99514.28
2018-12-23T15:18:21.938Z,99507.52
2018-12-23T15:20:51.772Z,99493.48
2018-12-23T15:23:23.100Z,99503.95
2018-12-23T15:25:52.638Z,99500.73
2018-12-23T15:28:34.369Z,99488.27
2018-12-23T15:31:12.993Z,99489.27
2018-12-23T15:33:42.766Z,99485.48
2018-12-23T15:36:15.475Z,99482.23
2018-12-23T15:38:44.960Z,99479.66
2018-12-23T15:41:15.241Z,99476.44
2018-12-23T15:43:46.999Z,99477.38
2018-12-23T15:46:20.352Z,99477.51
2018-12-23T15:48:51.734Z,99462.31
2018-12-23T15:51:21.663Z,99457.59
2018-12-23T15:53:54.810Z,99459.50
2018-12-23T15:56:24.452Z,99453.64
2018-12-23T15:58:54.184Z,99451.92
2018-12-23T16:01:23.925Z,99437.88
2018-12-23T16:03:56.371Z,99435.77
2018-12-23T16:06:28.984Z,99435.44
2018-12-23T16:09:00.047Z,99425.96
2018-12-23T16:11:29.928Z,99423.59
2018-12-23T16:13:59.502Z,99424.30
2018-12-23T16:16:31.037Z,99417.53
2018-12-23T16:19:02.139Z,99408.88
2018-12-23T16:21:34.699Z,99407.67
2018-12-23T16:24:04.311Z,99400.73
2018-12-23T16:26:34.353Z,99390.17
2018-12-23T16:29:06.927Z,99395.12
2018-12-23T16:31:40.418Z,99390.33
2018-12-23T16:34:10.024Z,99385.14
2018-12-23T16:36:42.401Z,99381.00
2018-12-23T16:39:12.504Z,99374.53
2018-12-23T16:41:43.366Z,99371.77
2018-12-23T16:44:13.088Z,99365.68
2018-12-23T16:46:49.332Z,99370.63
2018-12-23T16:49:21.070Z,99360.87
2018-12-23T16:51:52.485Z,99369.68
2018-12-23T16:54:22.253Z,99359.20
2018-12-23T16:56:51.856Z,99364.36
2018-12-23T16:59:21.874Z,99359.69
2018-12-23T17:01:54.802Z,99353.53
2018-12-23T17:04:27.230Z,99352.89
2018-12-23T17:06:58.408Z,99353.27
2018-12-23T17:09:32.137Z,99348.35
2018-12-23T17:12:01.764Z,99350.19
2018-12-23T17:14:31.332Z,99346.98
2018-12-23T17:17:03.841Z,99334.17
2018-12-23T17:19:33.498Z,99329.86
2018-12-23T17:22:03.090Z,99326.97
2018-12-23T17:24:32.615Z,99325.36
2018-12-23T17:27:02.212Z,99314.79
2018-12-23T17:29:32.033Z,99314.20
2018-12-23T17:32:09.192Z,99312.88
2018-12-23T17:34:40.235Z,99303.59
2018-12-23T17:37:15.014Z,99298.76
2018-12-23T17:39:44.646Z,99297.42
2018-12-23T17:42:14.444Z,99300.20
2018-12-23T17:44:48.085Z,99309.83
2018-12-23T17:47:17.777Z,99308.73
2018-12-23T17:49:47.742Z,99296.92
2018-12-23T17:52:23.131Z,99303.36
2018-12-23T17:54:48.555Z,99293.69
2018-12-23T17:57:22.349Z,99283.94
2018-12-23T17:59:53.452Z,99280.97
2018-12-23T18:02:24.011Z,99275.70
2018-12-23T18:05:02.084Z,99273.93
2018-12-23T18:07:37.180Z,99260.80
2018-12-23T18:10:12.332Z,99269.63
2018-12-23T18:19:08.363Z,99253.31
2018-12-23T18:21:41.031Z,99243.48
2018-12-23T18:24:14.027Z,99241.39
2018-12-23T18:26:47.451Z,99244.19
2018-12-23T18:29:18.201Z,99252.63
2018-12-23T18:31:57.289Z,99245.83
2018-12-23T18:34:35.013Z,99242.72
2018-12-23T18:37:09.655Z,99230.66
2018-12-23T18:39:39.552Z,99239.27
2018-12-23T18:42:11.204Z,99230.76
2018-12-23T18:44:40.798Z,99215.07
2018-12-23T18:47:11.325Z,99210.61
2018-12-23T18:49:41.617Z,99214.05
2018-12-23T18:52:11.425Z,99205.59
2018-12-23T18:54:48.498Z,99205.92
2018-12-23T18:57:19.504Z,99201.66
2018-12-23T18:59:49.094Z,99198.80
2018-12-23T19:02:21.055Z,99202.98
2018-12-23T19:04:53.567Z,99196.09
2018-12-23T19:07:26.958Z,99197.44
2018-12-23T19:09:57.387Z,99180.20
2018-12-23T19:13:01.818Z,99189.69
2018-12-23T19:15:53.863Z,99194.09
2018-12-23T19:18:53.131Z,99177.92
2018-12-23T19:21:43.672Z,99174.89
2018-12-23T19:24:18.891Z,99170.27
2018-12-23T19:27:14.240Z,99164.23
2018-12-23T19:30:22.810Z,99165.05
2018-12-23T19:32:55.286Z,99173.73
2018-12-23T19:35:55.960Z,99166.31
2018-12-23T19:38:43.042Z,99149.99
2018-12-23T19:41:20.594Z,99138.27
2018-12-23T19:44:08.260Z,99124.83
2018-12-23T19:47:02.444Z,99134.22
2018-12-23T19:49:39.493Z,99126.65
2018-12-23T19:52:41.397Z,99134.09
2018-12-23T19:55:21.095Z,99121.89
2018-12-23T19:58:15.154Z,99135.23
2018-12-23T20:00:53.890Z,99129.12
2018-12-23T20:03:50.811Z,99150.51
2018-12-23T20:06:47.697Z,99163.39
2018-12-23T20:09:29.337Z,99164.97
2018-12-23T20:12:23.106Z,99152.55
2018-12-23T20:15:07.031Z,99145.19
2018-12-23T20:17:49.138Z,99149.31
2018-12-23T20:20:37.166Z,99153.42
2018-12-23T20:23:25.621Z,99159.44
2018-12-23T20:26:10.222Z,99161.00
2018-12-23T20:29:03.975Z,99152.08
2018-12-23T20:31:48.324Z,99159.08
2018-12-23T20:34:30.523Z,99160.50
2018-12-23T20:37:29.940Z,99153.94
2018-12-23T20:40:18.905Z,99137.02
2018-12-23T20:43:14.142Z,99122.86
2018-12-23T20:46:07.664Z,99118.34
2018-12-23T20:49:07.331Z,99112.18
2018-12-23T20:51:46.114Z,99106.32
2018-12-23T20:54:30.873Z,99106.45
2018-12-23T20:57:13.581Z,99095.61
2018-12-23T20:59:52.322Z,99088.26
2018-12-23T21:02:49.481Z,99076.31
2018-12-23T21:05:39.836Z,99068.40
2018-12-23T21:08:18.779Z,99080.61
2018-12-23T21:11:15.797Z,99078.30
2018-12-23T21:14:02.230Z,99080.91
2018-12-23T21:16:44.171Z,99086.19
2018-12-23T21:19:33.603Z,99086.81
2018-12-23T21:22:06.308Z,99104.48
2018-12-23T21:24:52.280Z,99111.99
2018-12-23T21:27:37.040Z,99108.38
2018-12-23T21:30:19.926Z,99090.43
2018-12-23T21:33:09.294Z,99077.63
2018-12-23T21:36:04.079Z,99074.66
2018-12-23T21:38:56.216Z,99071.33
2018-12-23T21:42:35.475Z,99078.22
2018-12-23T21:45:23.359Z,99063.80
2018-12-23T21:47:58.859Z,99057.06
2018-12-23T21:50:53.212Z,99054.65
2018-12-23T21:53:42.283Z,99061.22
2018-12-23T21:56:25.753Z,99063.16
2018-12-23T21:59:07.430Z,99070.44
2018-12-23T22:02:08.813Z,99068.02
2018-12-23T22:04:48.919Z,99063.43
2018-12-23T22:07:50.464Z,99063.64
2018-12-23T22:10:25.990Z,99056.73
2018-12-23T22:13:29.068Z,99050.59
2018-12-23T22:16:01.049Z,99043.70
2018-12-23T22:18:32.106Z,99037.77
2018-12-23T22:21:02.123Z,99036.89
2018-12-23T22:23:32.191Z,99026.88
2018-12-23T22:26:06.133Z,99032.63
2018-12-23T22:28:36.653Z,99034.53
2018-12-23T22:31:06.304Z,99021.76
2018-12-23T22:33:36.076Z,99023.77
2018-12-23T22:36:07.088Z,99022.22
2018-12-23T22:38:36.819Z,99030.35
2018-12-23T22:41:07.474Z,99033.91
2018-12-23T22:43:39.583Z,99028.00
2018-12-23T22:46:09.487Z,99017.55
2018-12-23T22:48:39.453Z,99032.84
2018-12-23T22:51:09.050Z,99042.00
2018-12-23T22:53:41.337Z,99036.05
2018-12-23T22:56:29.801Z,99028.55
2018-12-23T22:59:14.198Z,99030.98
2018-12-23T23:01:46.142Z,99022.61
2018-12-23T23:04:15.824Z,99010.29
2018-12-23T23:06:45.659Z,99009.49
2018-12-23T23:09:15.536Z,99019.34
2018-12-23T23:11:49.952Z,99039.47
2018-12-23T23:14:25.194Z,99038.11
2018-12-23T23:16:54.772Z,99032.77
2018-12-23T23:19:24.367Z,99042.03
2018-12-23T23:21:55.549Z,99029.34
2018-12-23T23:24:26.706Z,99024.04
2018-12-23T23:26:58.133Z,99027.57
2018-12-23T23:29:32.734Z,99034.54
2018-12-23T23:32:02.645Z,99041.26
2018-12-23T23:34:32.159Z,99036.57
2018-12-23T23:37:02.533Z,99037.50
2018-12-23T23:39:36.165Z,99035.59
2018-12-23T23:42:07.146Z,99034.78
2018-12-23T23:44:36.972Z,99036.21
2018-12-23T23:47:10.292Z,99059.52
2018-12-23T23:49:40.877Z,99052.52
2018-12-23T23:52:11.975Z,99049.02
2018-12-23T23:54:45.812Z,99051.20
2018-12-23T23:57:15.420Z,99058.98
2018-12-23T23:59:44.929Z,99057.66
